Aspen-Pitkin Co/Sardy Field
KASE : now visible

Airfield :











YOU CAN JOIN US ON...

 
LOGIN :

Register | Disclaimer

   EN    FR    IT 

 









Legend :    VFR   Marginal VFR   IFR   Intensive IFR   Very Intensive IFR
Visi :
Ceiling :
>= 8 km
>= 3000ft
5 to 8 km
1000 to 3000 ft
1500m to 5 km
500 to 1000 ft
800 to 1500m
200 to 500 ft
< 800m
< 200 ft
Symbols :   Thunderstorms  Fog  Heavy snow  Heavy precipitations  Wind > 20 kt






- Airport Elevation : 7820 ft


KASE - Aspen-Pitkin Co/Sardy Field

CURRENT METAR :
  • 151453Z 00000KT 10SM CLR M12/M14 A2977 RMK AO2 SLP102 T11221144 53007

EXPIRED METARs :
  • 151353Z 21003KT 10SM BKN120 M12/M14 A2975 RMK AO2 SLP094 T11171144
  • 151253Z AUTO 00000KT 10SM CLR M11/M14 A2974 RMK AO2 SLP086 T11111139

TAF KASE
Valid from the 15 at 12:00 until the 16 at 12:00 UTC


151140Z 1512/1612 17006KT P6SM BKN050
FM151800 VRB03KT P6SM SCT045 OVC060
FM160000 VRB03KT P6SM SCT050 BKN060
FM160300 VRB03KT P6SM BKN040
FM160900 VRB03KT P6SM FEW045 SCT050



MET'MAP, your aeronautical weather chart ! - Copyright ORBIFLY December 2007 - Disclaimer

ORBIFLY MET'MAP TEAM :

Programming & Development : Alexandra Zaïnal
Concept & original design : Baudouin d'Aumeries
Assistance for programming : Marc-Olivier Méhu
Technical & hardware support : Manuel Goepfert

Contact : metmap@orbifly.com




SOURCES & CREDITS :

   NOAA       Earth
Advisory